Portada
METAR-TAF:

METAR-TAF

Aeroports :

Kingstree, Carolina del Sud, Estats Units d'Amèrica

latitud: 33-43-02N, longitud: 079-51-25W, altitud: 20 m

Observació

L'informe es va fer fa 23 minuts, a les 06:55 UTC
Vent calma
Temperatura 15°C
Humitat 100%
Pressió 1023 hPa
Visibilitat: 11.3 km
Cel clar

METAR: KCKI 020655Z AUTO 00000KT 7SM CLR 15/15 A3022 RMK AO2

Hora: 03:18 (07:18 UTC)


TAF: manca

Observacions i pronòstics meteorològics de més de 4000 aeroports (METAR i TAF).

Les estacions disponibles són els punts grocs i vermells al mapa.

Posi el ratolí al punt desitjat per veure el nom de l'estació.

Feu clic per veure les observacions i els pronòstics meteorològics.

Per canviar el mapa: feu clic els botons verds amb una creu de color negre per apropar; al botó verd amb un guió per allunyar la imatge; o en les fletxes verdes per a mapes adjacents.


METAR-TAF: